createdAt,value
2023-01-23T00:00:17.283Z,34.75
2023-01-23T00:02:45.944Z,30.50
2023-01-23T00:05:14.633Z,32.35
2023-01-23T00:07:43.029Z,33.35
2023-01-23T00:10:14.868Z,26.90
2023-01-23T00:12:44.841Z,29.35
2023-01-23T00:15:14.923Z,35.13
2023-01-23T00:17:45.190Z,30.67
2023-01-23T00:20:14.414Z,23.88
2023-01-23T00:22:42.972Z,26.08
2023-01-23T00:25:11.643Z,28.55
2023-01-23T00:27:40.077Z,27.17
2023-01-23T00:30:09.859Z,28.48
2023-01-23T00:32:39.630Z,29.48
2023-01-23T00:35:08.761Z,27.73
2023-01-23T00:37:37.425Z,25.58
2023-01-23T00:40:07.074Z,28.98
2023-01-23T00:42:35.665Z,29.02
2023-01-23T00:45:04.514Z,27.27
2023-01-23T00:47:33.103Z,26.90
2023-01-23T00:50:03.203Z,24.63
2023-01-23T00:52:31.676Z,29.65
2023-01-23T00:55:00.119Z,27.17
2023-01-23T00:57:28.947Z,28.58
2023-01-23T00:59:57.348Z,30.35
2023-01-23T01:02:26.040Z,27.90
2023-01-23T01:04:54.457Z,32.75
2023-01-23T01:07:24.420Z,32.97
2023-01-23T01:09:53.044Z,30.33
2023-01-23T01:12:21.702Z,27.33
2023-01-23T01:14:50.266Z,26.80
2023-01-23T01:17:18.794Z,40.88
2023-01-23T01:19:47.274Z,27.65
2023-01-23T01:22:15.843Z,31.23
2023-01-23T01:24:46.070Z,31.55
2023-01-23T01:27:14.657Z,31.08
2023-01-23T01:29:43.208Z,26.52
2023-01-23T01:32:11.712Z,28.92
2023-01-23T01:34:40.089Z,26.75
2023-01-23T01:37:08.560Z,27.60
2023-01-23T01:39:37.245Z,30.80
2023-01-23T01:42:07.145Z,30.05
2023-01-23T01:44:54.327Z,25.30
2023-01-23T01:47:23.190Z,24.67
2023-01-23T01:49:53.505Z,26.73
2023-01-23T01:52:24.277Z,29.30
2023-01-23T01:54:56.992Z,27.08
2023-01-23T01:57:29.888Z,28.05
2023-01-23T02:00:01.775Z,29.63
2023-01-23T02:02:34.009Z,27.10
2023-01-23T02:05:05.346Z,29.17
2023-01-23T02:07:38.359Z,27.13
2023-01-23T02:10:09.276Z,27.17
2023-01-23T02:12:39.945Z,27.10
2023-01-23T02:15:10.082Z,27.10
2023-01-23T02:17:38.855Z,25.70
2023-01-23T02:20:14.322Z,28.05
2023-01-23T02:22:55.812Z,27.60
2023-01-23T02:25:31.686Z,29.10
2023-01-23T02:28:02.363Z,28.15
2023-01-23T02:30:30.921Z,25.05
2023-01-23T02:33:09.252Z,28.83
2023-01-23T02:35:38.925Z,24.52
2023-01-23T02:38:07.689Z,30.35
2023-01-23T02:40:38.453Z,26.85
2023-01-23T02:43:11.946Z,30.70
2023-01-23T02:45:40.868Z,28.15
2023-01-23T02:48:09.847Z,25.15
2023-01-23T02:50:38.384Z,30.42
2023-01-23T02:53:07.167Z,27.45
2023-01-23T02:55:37.833Z,27.95
2023-01-23T02:58:21.711Z,29.42
2023-01-23T03:00:50.496Z,27.02
2023-01-23T03:03:18.939Z,26.40
2023-01-23T03:05:48.455Z,27.50
2023-01-23T03:08:17.044Z,25.98
2023-01-23T03:10:45.573Z,28.05
2023-01-23T03:13:17.250Z,26.27
2023-01-23T03:15:45.666Z,28.67
2023-01-23T03:18:14.181Z,28.30
2023-01-23T03:20:43.393Z,32.92
2023-01-23T03:23:12.013Z,32.83
2023-01-23T03:25:44.585Z,26.73
2023-01-23T03:28:33.253Z,28.48
2023-01-23T03:31:02.290Z,28.65
2023-01-23T03:33:30.815Z,32.13
2023-01-23T03:35:59.232Z,29.00
2023-01-23T03:38:27.717Z,24.15
2023-01-23T03:41:28.132Z,27.92
2023-01-23T03:43:57.742Z,24.15
2023-01-23T03:46:28.302Z,28.80
2023-01-23T03:48:56.800Z,26.13
2023-01-23T03:51:25.334Z,27.45
2023-01-23T03:53:54.099Z,27.85
2023-01-23T03:56:22.676Z,27.02
2023-01-23T03:58:51.121Z,24.27
2023-01-23T04:01:19.922Z,27.42
2023-01-23T04:03:50.910Z,26.75
2023-01-23T04:06:19.870Z,28.40
2023-01-23T04:08:48.430Z,26.67
2023-01-23T04:11:16.983Z,30.02
2023-01-23T04:13:48.195Z,28.60
2023-01-23T04:16:17.007Z,24.95
2023-01-23T04:18:45.518Z,27.02
2023-01-23T04:21:15.471Z,26.40
2023-01-23T04:23:43.990Z,26.08
2023-01-23T04:26:12.392Z,25.42
2023-01-23T04:28:41.287Z,24.52
2023-01-23T04:31:10.193Z,25.40
2023-01-23T04:33:38.606Z,24.33
2023-01-23T04:36:08.287Z,26.73
2023-01-23T04:38:38.233Z,28.30
2023-01-23T04:41:06.879Z,26.88
2023-01-23T04:43:35.850Z,24.33
2023-01-23T04:46:04.415Z,26.08
2023-01-23T04:48:32.885Z,24.98
2023-01-23T04:51:01.354Z,31.20
2023-01-23T04:53:29.949Z,29.77
2023-01-23T04:55:59.864Z,26.45
2023-01-23T04:58:28.530Z,25.65
2023-01-23T05:01:02.751Z,26.75
2023-01-23T05:03:32.815Z,29.73
2023-01-23T05:06:01.384Z,37.75
2023-01-23T05:08:29.817Z,27.02
2023-01-23T05:10:59.656Z,27.02
2023-01-23T05:13:28.035Z,29.48
2023-01-23T05:15:58.265Z,27.35
2023-01-23T05:18:27.123Z,28.83
2023-01-23T05:20:55.490Z,27.83
2023-01-23T05:23:23.969Z,28.83
2023-01-23T05:25:52.609Z,31.38
2023-01-23T05:28:22.809Z,29.67
2023-01-23T05:30:51.381Z,28.30
2023-01-23T05:33:19.955Z,28.70
2023-01-23T05:35:48.368Z,30.70
2023-01-23T05:38:16.889Z,28.05
2023-01-23T05:40:45.544Z,27.42
2023-01-23T05:43:15.719Z,26.20
2023-01-23T05:45:45.498Z,30.05
2023-01-23T05:48:13.936Z,29.80
2023-01-23T05:50:42.647Z,29.08
2023-01-23T05:53:11.404Z,29.02
2023-01-23T05:55:40.155Z,27.55
2023-01-23T05:58:08.657Z,31.92
2023-01-23T06:00:37.621Z,26.27
2023-01-23T06:03:09.803Z,26.70
2023-01-23T06:05:38.703Z,29.60
2023-01-23T06:08:07.884Z,26.75
2023-01-23T06:10:38.202Z,27.05
2023-01-23T06:13:06.682Z,27.10
2023-01-23T06:15:35.209Z,27.88
2023-01-23T06:18:03.969Z,27.38
2023-01-23T06:20:33.811Z,27.20
2023-01-23T06:23:02.247Z,27.30
2023-01-23T06:25:30.873Z,27.77
2023-01-23T06:27:59.368Z,26.50
2023-01-23T06:30:28.337Z,27.27
2023-01-23T06:32:56.971Z,27.55
2023-01-23T06:35:25.706Z,24.67
2023-01-23T06:37:55.689Z,27.70
2023-01-23T06:40:24.118Z,26.13
2023-01-23T06:42:55.927Z,23.52
2023-01-23T06:45:24.685Z,28.52
2023-01-23T06:47:53.490Z,25.90
2023-01-23T06:50:22.444Z,28.50
2023-01-23T06:52:51.075Z,25.75
2023-01-23T06:55:21.243Z,27.15
2023-01-23T06:57:50.027Z,23.90
2023-01-23T07:00:23.602Z,25.60
2023-01-23T07:02:53.111Z,24.95
2023-01-23T07:05:22.316Z,25.00
2023-01-23T07:07:53.426Z,26.45
2023-01-23T07:10:24.175Z,25.58
2023-01-23T07:12:52.909Z,22.45
2023-01-23T07:15:21.654Z,22.95
2023-01-23T07:17:50.419Z,25.25
2023-01-23T07:20:19.719Z,29.83
2023-01-23T07:22:49.911Z,24.75
2023-01-23T07:25:18.467Z,25.98
2023-01-23T07:27:48.662Z,28.52
2023-01-23T07:30:18.937Z,26.80
2023-01-23T07:32:47.703Z,28.42
2023-01-23T07:35:16.434Z,23.05
2023-01-23T07:37:44.882Z,25.63
2023-01-23T07:40:14.433Z,28.13
2023-01-23T07:42:42.899Z,23.27
2023-01-23T07:45:14.175Z,26.50
2023-01-23T07:47:44.815Z,26.52
2023-01-23T07:50:16.247Z,21.95
2023-01-23T07:52:44.801Z,24.20
2023-01-23T07:55:22.099Z,25.50
2023-01-23T07:57:50.777Z,27.15
2023-01-23T08:00:24.294Z,23.92
2023-01-23T08:02:53.403Z,24.92
2023-01-23T08:05:21.984Z,26.52
2023-01-23T08:07:52.292Z,23.65
2023-01-23T08:10:26.620Z,32.15
2023-01-23T08:12:55.211Z,25.50
2023-01-23T08:15:25.125Z,28.73
2023-01-23T08:17:54.703Z,29.95
2023-01-23T08:20:23.627Z,25.30
2023-01-23T08:22:52.579Z,27.65
2023-01-23T08:25:21.059Z,25.85
2023-01-23T08:27:49.558Z,26.98
2023-01-23T08:30:18.844Z,25.70
2023-01-23T08:32:49.113Z,24.77
2023-01-23T08:35:17.743Z,27.13
2023-01-23T08:37:46.260Z,23.63
2023-01-23T08:40:14.892Z,25.77
2023-01-23T08:42:44.535Z,26.15
2023-01-23T08:45:17.043Z,28.27
2023-01-23T08:47:45.811Z,26.17
2023-01-23T08:50:15.867Z,27.73
2023-01-23T08:52:44.521Z,27.30
2023-01-23T08:55:13.823Z,29.00
2023-01-23T08:57:42.266Z,29.40
2023-01-23T09:00:13.032Z,26.08
2023-01-23T09:02:41.591Z,27.55
2023-01-23T09:05:10.696Z,26.58
2023-01-23T09:07:40.952Z,23.08
2023-01-23T09:10:11.317Z,27.52
2023-01-23T09:12:42.686Z,26.10
2023-01-23T09:15:11.997Z,25.95
2023-01-23T09:17:40.651Z,24.83
2023-01-23T09:20:12.113Z,24.42
2023-01-23T09:22:42.962Z,25.27
2023-01-23T09:25:12.225Z,23.85
2023-01-23T09:27:41.428Z,23.50
2023-01-23T09:30:11.313Z,21.88
2023-01-23T09:32:39.943Z,26.42
2023-01-23T09:35:09.482Z,21.20
2023-01-23T09:37:58.467Z,23.75
2023-01-23T09:43:17.000Z,23.58
2023-01-23T09:45:54.800Z,20.55
2023-01-23T09:48:29.600Z,20.25
2023-01-23T09:51:03.288Z,21.38
2023-01-23T09:53:38.315Z,18.55
2023-01-23T09:56:19.079Z,19.45
2023-01-23T09:59:00.285Z,16.52
2023-01-23T10:01:31.881Z,25.35
2023-01-23T10:04:02.102Z,17.17
2023-01-23T10:06:32.915Z,16.33
2023-01-23T10:09:27.166Z,16.20
2023-01-23T10:12:05.404Z,16.33
2023-01-23T10:14:50.768Z,24.48
2023-01-23T10:17:25.516Z,18.02
2023-01-23T10:20:15.643Z,20.88
2023-01-23T10:22:57.597Z,18.98
2023-01-23T10:25:33.263Z,14.20
2023-01-23T10:28:19.341Z,17.63
2023-01-23T10:30:56.259Z,20.00
2023-01-23T10:33:34.639Z,16.60
2023-01-23T10:36:15.101Z,16.67
2023-01-23T10:39:00.118Z,16.75
2023-01-23T10:41:32.260Z,18.95
2023-01-23T10:44:15.440Z,16.70
2023-01-23T10:46:50.875Z,15.60
2023-01-23T10:49:36.403Z,16.05
2023-01-23T10:52:10.455Z,15.35
2023-01-23T10:54:48.764Z,17.02
2023-01-23T10:57:24.841Z,15.60
2023-01-23T11:00:07.016Z,15.40
2023-01-23T11:02:41.237Z,15.13
2023-01-23T11:05:52.573Z,13.02
2023-01-23T11:08:31.977Z,15.45
2023-01-23T11:11:23.035Z,12.73
2023-01-23T11:14:09.569Z,14.23
2023-01-23T11:16:46.388Z,14.98
2023-01-23T11:19:22.643Z,17.30
2023-01-23T11:21:58.155Z,17.33
2023-01-23T11:24:41.435Z,14.38
2023-01-23T11:27:24.320Z,16.15
2023-01-23T11:30:43.030Z,16.55
2023-01-23T11:33:51.818Z,17.10
2023-01-23T11:36:50.565Z,19.20
2023-01-23T11:39:44.561Z,16.23
2023-01-23T11:42:16.273Z,15.07
2023-01-23T11:44:46.888Z,17.02
2023-01-23T11:47:42.757Z,15.68
2023-01-23T11:50:54.884Z,17.70
2023-01-23T11:53:42.997Z,16.77
2023-01-23T11:56:27.211Z,16.27
2023-01-23T11:59:17.943Z,17.02
2023-01-23T12:02:03.691Z,17.77
2023-01-23T12:05:04.129Z,15.88
2023-01-23T12:07:43.184Z,15.35
2023-01-23T12:10:25.144Z,14.80
2023-01-23T12:13:20.884Z,14.13
2023-01-23T12:16:07.558Z,17.95
2023-01-23T12:18:45.095Z,17.33
2023-01-23T12:21:24.585Z,14.50
2023-01-23T12:24:12.543Z,15.68
2023-01-23T12:26:58.974Z,17.23
2023-01-23T12:29:45.646Z,17.88
2023-01-23T12:32:33.256Z,15.88
2023-01-23T12:35:19.053Z,18.20
2023-01-23T12:38:04.483Z,23.77
2023-01-23T12:40:48.277Z,16.15
2023-01-23T12:43:24.718Z,16.95
2023-01-23T12:46:06.964Z,20.55
2023-01-23T12:48:40.294Z,18.85
2023-01-23T12:51:13.693Z,20.65
2023-01-23T12:53:45.993Z,18.70
2023-01-23T12:56:25.866Z,19.55
2023-01-23T12:59:08.302Z,20.10
2023-01-23T13:01:50.657Z,22.30
2023-01-23T13:04:44.314Z,21.67
2023-01-23T13:07:38.322Z,21.38
2023-01-23T13:10:26.441Z,21.80
2023-01-23T13:13:02.938Z,21.40
2023-01-23T13:15:41.842Z,22.50
2023-01-23T13:18:24.445Z,21.73
2023-01-23T13:21:16.074Z,18.45
2023-01-23T13:23:45.155Z,22.83
2023-01-23T13:26:29.000Z,22.77
2023-01-23T13:29:04.274Z,22.38
2023-01-23T13:31:40.153Z,21.13
2023-01-23T13:34:38.022Z,24.85
2023-01-23T13:37:51.194Z,26.35
2023-01-23T13:40:25.646Z,28.67
2023-01-23T13:42:54.287Z,23.55
2023-01-23T13:45:32.012Z,21.90
2023-01-23T14:23:35.287Z,25.02
2023-01-23T14:26:05.937Z,22.20
2023-01-23T14:28:34.539Z,21.92
2023-01-23T14:31:06.682Z,26.40
2023-01-23T14:33:45.957Z,24.80
2023-01-23T14:36:19.693Z,26.88
2023-01-23T14:38:51.088Z,24.20
2023-01-23T14:41:31.723Z,20.95
2023-01-23T14:44:03.477Z,22.25
2023-01-23T14:46:40.146Z,22.70
2023-01-23T14:49:15.703Z,22.90
2023-01-23T14:51:57.115Z,24.35
2023-01-23T14:54:29.621Z,24.80
2023-01-23T14:57:08.047Z,23.63
2023-01-23T14:59:42.360Z,26.67
2023-01-23T15:02:26.874Z,29.05
2023-01-23T15:05:08.874Z,22.83
2023-01-23T15:07:46.085Z,21.48
2023-01-23T15:10:17.481Z,30.40
2023-01-23T15:12:53.071Z,23.75
2023-01-23T15:15:24.922Z,28.75
2023-01-23T15:17:56.010Z,24.52
2023-01-23T15:20:36.319Z,25.00
2023-01-23T15:23:24.973Z,28.23
2023-01-23T15:26:25.326Z,31.60
2023-01-23T15:28:55.652Z,26.27
2023-01-23T15:31:27.527Z,29.13
2023-01-23T15:33:58.494Z,26.83
2023-01-23T15:36:30.480Z,24.70
2023-01-23T15:39:00.943Z,25.20
2023-01-23T15:41:40.399Z,26.35
2023-01-23T15:44:14.169Z,26.40
2023-01-23T15:46:43.076Z,26.17
2023-01-23T15:49:24.338Z,31.00
2023-01-23T15:51:56.111Z,29.60
2023-01-23T15:54:32.084Z,23.65
2023-01-23T15:57:07.565Z,25.10
2023-01-23T15:59:37.943Z,28.35
2023-01-23T16:02:12.826Z,26.60
2023-01-23T16:04:47.708Z,26.05
2023-01-23T16:07:23.851Z,26.85
2023-01-23T16:09:55.157Z,23.85
2023-01-23T16:12:29.343Z,26.23
2023-01-23T16:14:59.165Z,25.83
2023-01-23T16:17:27.767Z,28.25
2023-01-23T16:19:56.265Z,25.38
2023-01-23T16:22:29.284Z,29.67
2023-01-23T16:25:02.330Z,25.73
2023-01-23T16:27:32.187Z,26.15
2023-01-23T16:30:00.633Z,27.27
2023-01-23T16:32:29.310Z,26.05
2023-01-23T16:35:13.154Z,25.08
2023-01-23T16:37:53.698Z,27.42
2023-01-23T16:40:29.502Z,27.77
2023-01-23T16:43:00.005Z,23.63
2023-01-23T16:45:34.171Z,26.95
2023-01-23T16:48:03.904Z,26.90
2023-01-23T16:50:37.094Z,23.05
2023-01-23T16:53:12.544Z,27.88
2023-01-23T16:55:45.128Z,28.02
2023-01-23T16:58:18.502Z,22.42
2023-01-23T17:00:47.951Z,23.25
2023-01-23T17:03:27.685Z,26.30
2023-01-23T17:05:56.764Z,24.75
2023-01-23T17:08:26.455Z,22.20
2023-01-23T17:11:04.298Z,23.77
2023-01-23T17:13:35.763Z,23.33
2023-01-23T17:16:12.745Z,23.73
2023-01-23T17:18:50.730Z,24.85
2023-01-23T17:21:23.492Z,26.45
2023-01-23T17:23:52.235Z,20.50
2023-01-23T17:26:22.195Z,20.33
2023-01-23T17:28:53.852Z,19.38
2023-01-23T17:31:32.692Z,22.55
2023-01-23T17:34:04.275Z,20.00
2023-01-23T17:36:33.825Z,22.45
2023-01-23T17:39:02.586Z,22.08
2023-01-23T17:41:41.310Z,21.10
2023-01-23T17:44:10.062Z,18.65
2023-01-23T17:46:43.042Z,20.50
2023-01-23T17:49:29.230Z,22.15
2023-01-23T17:52:01.474Z,22.05
2023-01-23T17:54:30.061Z,21.88
2023-01-23T17:57:00.026Z,20.27
2023-01-23T17:59:34.703Z,22.33
2023-01-23T18:02:29.804Z,19.67
2023-01-23T18:05:01.049Z,20.30
2023-01-23T18:07:29.916Z,21.27
2023-01-23T18:09:58.728Z,21.35
2023-01-23T18:12:40.963Z,21.45
2023-01-23T18:15:18.124Z,21.23
2023-01-23T18:17:56.038Z,21.13
2023-01-23T18:20:35.575Z,19.17
2023-01-23T18:23:12.920Z,20.30
2023-01-23T18:25:46.157Z,18.55
2023-01-23T18:28:24.028Z,23.02
2023-01-23T18:31:00.724Z,18.33
2023-01-23T18:33:48.502Z,22.83
2023-01-23T18:36:31.158Z,19.02
2023-01-23T18:39:16.453Z,17.33
2023-01-23T18:42:04.734Z,19.65
2023-01-23T18:44:35.918Z,19.58
2023-01-23T18:47:11.727Z,19.02
2023-01-23T18:49:44.274Z,20.95
2023-01-23T18:52:18.028Z,23.85
2023-01-23T18:54:54.676Z,22.35
2023-01-23T18:57:45.323Z,19.80
2023-01-23T19:00:19.897Z,20.50
2023-01-23T19:02:57.095Z,22.65
2023-01-23T19:05:31.374Z,19.67
2023-01-23T19:08:01.292Z,22.20
2023-01-23T19:10:47.571Z,25.08
2023-01-23T19:13:21.058Z,25.42
2023-01-23T19:16:05.492Z,25.80
2023-01-23T19:18:45.834Z,26.05
2023-01-23T19:21:23.008Z,25.13
2023-01-23T19:23:58.017Z,23.55
2023-01-23T19:26:29.533Z,25.45
2023-01-23T19:29:05.649Z,27.20
2023-01-23T19:32:06.529Z,27.15
2023-01-23T19:34:35.957Z,31.17
2023-01-23T19:37:08.660Z,26.38
2023-01-23T19:39:51.635Z,29.38
2023-01-23T19:42:58.730Z,24.42
2023-01-23T19:45:36.047Z,24.20
2023-01-23T19:48:06.845Z,27.50
2023-01-23T19:50:35.951Z,27.77
2023-01-23T19:53:05.670Z,28.58
2023-01-23T19:55:38.683Z,26.83
2023-01-23T19:58:08.236Z,29.63
2023-01-23T20:00:37.093Z,32.53
2023-01-23T20:03:16.552Z,29.20
2023-01-23T20:05:45.306Z,36.05
2023-01-23T20:08:13.759Z,30.15
2023-01-23T20:10:43.615Z,32.15
2023-01-23T20:13:12.716Z,31.60
2023-01-23T20:15:44.386Z,29.27
2023-01-23T20:18:16.228Z,34.22
2023-01-23T20:20:44.829Z,29.95
2023-01-23T20:23:14.182Z,28.73
2023-01-23T20:25:42.641Z,28.63
2023-01-23T20:28:13.941Z,32.28
2023-01-23T20:30:42.562Z,29.80
2023-01-23T20:33:11.809Z,30.35
2023-01-23T20:35:43.785Z,28.20
2023-01-23T20:38:13.298Z,29.10
2023-01-23T20:40:43.379Z,30.33
2023-01-23T20:43:15.230Z,26.65
2023-01-23T20:45:50.424Z,30.25
2023-01-23T20:48:24.467Z,28.92
2023-01-23T20:50:58.655Z,25.73
2023-01-23T20:53:38.726Z,29.75
2023-01-23T20:56:13.488Z,30.30
2023-01-23T20:59:01.981Z,32.67
2023-01-23T21:01:53.709Z,33.45
2023-01-23T21:04:24.049Z,33.88
2023-01-23T21:06:57.291Z,29.27
2023-01-23T21:09:26.061Z,29.90
2023-01-23T21:11:55.386Z,29.55
2023-01-23T21:14:27.368Z,28.38
2023-01-23T21:16:59.092Z,31.73
2023-01-23T21:19:28.375Z,26.92
2023-01-23T21:22:06.431Z,31.05
2023-01-23T21:24:36.042Z,31.73
2023-01-23T21:27:05.397Z,25.58
2023-01-23T21:29:34.737Z,27.10
2023-01-23T21:32:03.604Z,28.02
2023-01-23T21:34:32.782Z,30.33
2023-01-23T21:37:03.634Z,27.38
2023-01-23T21:39:32.609Z,30.13
2023-01-23T21:42:01.274Z,33.28
2023-01-23T21:44:29.735Z,30.92
2023-01-23T21:46:58.252Z,26.67
2023-01-23T21:49:26.889Z,27.67
2023-01-23T21:51:55.584Z,28.90
2023-01-23T21:54:25.724Z,30.88
2023-01-23T21:56:54.144Z,28.58
2023-01-23T21:59:22.652Z,27.67
2023-01-23T22:01:50.426Z,26.25
2023-01-23T22:04:22.305Z,25.25
2023-01-23T22:06:54.862Z,26.92
2023-01-23T22:09:26.213Z,25.88
2023-01-23T22:11:55.663Z,27.30
2023-01-23T22:14:24.242Z,23.20
2023-01-23T22:16:52.874Z,27.15
2023-01-23T22:19:25.637Z,27.95
2023-01-23T22:21:55.076Z,25.33
2023-01-23T22:24:25.393Z,22.83
2023-01-23T22:26:53.806Z,23.80
2023-01-23T22:29:22.800Z,24.33
2023-01-23T22:31:52.140Z,20.65
2023-01-23T22:34:21.343Z,24.65
2023-01-23T22:36:49.973Z,21.55
2023-01-23T22:39:19.742Z,23.65
2023-01-23T22:41:51.045Z,23.73
2023-01-23T22:44:20.014Z,21.60
2023-01-23T22:46:51.384Z,21.85
2023-01-23T22:49:20.928Z,19.42
2023-01-23T22:51:51.552Z,21.98
2023-01-23T22:54:20.819Z,22.55
2023-01-23T22:56:50.814Z,22.45
2023-01-23T22:59:19.615Z,26.58
2023-01-23T23:01:48.756Z,22.27
2023-01-23T23:04:17.905Z,24.80
2023-01-23T23:06:46.773Z,21.88
2023-01-23T23:09:15.795Z,25.90
2023-01-23T23:11:47.305Z,21.13
2023-01-23T23:14:17.495Z,22.23
2023-01-23T23:16:45.974Z,21.05
2023-01-23T23:19:14.426Z,21.77
2023-01-23T23:21:42.848Z,24.58
2023-01-23T23:24:14.028Z,27.08
2023-01-23T23:26:42.870Z,22.58
2023-01-23T23:29:11.465Z,24.58
2023-01-23T23:31:41.947Z,22.48
2023-01-23T23:34:10.484Z,23.00
2023-01-23T23:36:38.931Z,22.35
2023-01-23T23:39:07.571Z,22.50
2023-01-23T23:41:36.092Z,23.63
2023-01-23T23:44:04.962Z,21.58
2023-01-23T23:46:33.510Z,22.20
2023-01-23T23:49:03.409Z,20.02
2023-01-23T23:51:31.984Z,20.60
2023-01-23T23:54:00.572Z,21.10
2023-01-23T23:56:32.051Z,20.80
2023-01-23T23:59:00.774Z,21.77
